Addison, Alabama
Current Conditions -  °F | °C
As of 2:15 AM on Sunday 21 Dec 2014 (Local Time) from KCMD Reporting Station
Scattered Clouds Scattered Clouds  
Wind Chill: -1°   Ceiling: Unl
Heat Index: -1°   Visibility: 7mi
Dew Point: -2°   Wind: 0mph
Humidity: 94%   Direction: NA
Pressure: 30.21"   Gusts: NA
Location:  34.2°N, 87.18°W
Report Text: KCMD 210815Z AUTO 00000KT 7SM SCT032 M01/M02 A3021 RMK AO2 T10131022
Loading
Personal Weather Stations






























Interactive Weather Map New forecast layout! Learn more

10-Day Weather Forecast

Advertisements
Track Severe Weather on mobile